Time;durP1;ratioP1;P1;durP2;ratioP2;P2;SDS_P1;SDS_P2;PMS_P1;PMS_P2;Temp;Humidity;BMP_temperature;BMP_pressure;BME280_temperature;BME280_humidity;BME280_pressure;Samples;Min_cycle;Max_cycle;Signal;HPM_P1;HPM_P2
2022/01/14 00:02:21;;;;;;;65.05;22.50;;;;;;;-1.43;83.11;98211.13;5030590;28;21471;-75
2022/01/14 00:04:48;;;;;;;67.45;22.02;;;;;;;-1.45;83.26;98205.19;5031110;28;20057;-75
2022/01/14 00:07:14;;;;;;;142.55;23.73;;;;;;;-1.45;82.91;98184.63;5030812;28;20060;-75
2022/01/14 00:09:41;;;;;;;61.00;21.20;;;;;;;-1.45;82.08;98181.13;5030870;28;20053;-75
2022/01/14 00:12:15;;;;;;;73.95;22.38;;;;;;;-1.53;81.79;98176.75;5028477;28;20068;-74
2022/01/14 00:14:45;;;;;;;72.82;20.73;;;;;;;-1.68;82.47;98168.03;5030936;28;20510;-75
2022/01/14 00:17:14;;;;;;;64.63;21.50;;;;;;;-1.77;82.73;98179.91;5029445;28;20057;-75
2022/01/14 00:19:42;;;;;;;73.03;21.17;;;;;;;-1.88;83.55;98184.75;5031013;28;20053;-74
2022/01/14 00:22:13;;;;;;;62.10;21.50;;;;;;;-1.96;83.66;98187.53;5030495;28;20053;-74
2022/01/14 00:33:02;;;;;;;62.15;21.80;;;;;;;-1.97;84.83;98164.53;5030810;28;20515;-75
2022/01/14 00:35:28;;;;;;;91.72;22.27;;;;;;;-1.98;84.72;98157.56;5030520;28;20117;-75
2022/01/14 00:37:55;;;;;;;92.50;21.33;;;;;;;-2.02;84.75;98161.63;5030576;28;20413;-75
2022/01/14 00:40:22;;;;;;;61.38;20.13;;;;;;;-2.11;84.42;98162.78;5030046;28;20056;-74
2022/01/14 00:42:49;;;;;;;76.70;20.10;;;;;;;-2.11;84.68;98157.44;5028909;28;20042;-75
2022/01/14 00:45:17;;;;;;;96.70;20.73;;;;;;;-2.15;84.75;98161.50;5030274;28;20049;-75
2022/01/14 00:47:44;;;;;;;74.85;20.50;;;;;;;-2.21;84.51;98162.28;5030488;28;20049;-75
2022/01/14 00:50:13;;;;;;;92.15;20.38;;;;;;;-2.36;84.50;98157.84;5029934;28;20054;-75
2022/01/14 00:52:42;;;;;;;133.95;21.00;;;;;;;-2.45;84.79;98147.50;5030349;28;20045;-74
2022/01/14 00:55:12;;;;;;;84.13;20.45;;;;;;;-2.55;85.03;98150.50;5028682;28;20053;-75
2022/01/14 01:00:26;;;;;;;56.00;21.20;;;;;;;-2.59;85.87;98146.56;5029748;28;20072;-74
2022/01/14 01:02:52;;;;;;;76.90;20.13;;;;;;;-2.59;85.92;98143.06;5030367;28;20057;-75
2022/01/14 01:05:20;;;;;;;54.50;18.88;;;;;;;-2.63;85.62;98137.28;5030060;28;20412;-75
2022/01/14 01:07:54;;;;;;;65.35;20.48;;;;;;;-2.72;85.39;98133.91;5030194;28;20073;-75
2022/01/14 01:10:20;;;;;;;78.70;18.98;;;;;;;-2.78;85.70;98133.84;5029425;28;20053;-75
2022/01/14 01:12:51;;;;;;;65.85;18.92;;;;;;;-2.83;86.09;98142.41;5028290;28;20053;-75
2022/01/14 01:15:20;;;;;;;64.07;19.08;;;;;;;-2.91;86.21;98140.69;5029791;28;20050;-74
2022/01/14 01:17:48;;;;;;;51.70;17.98;;;;;;;-2.92;86.42;98154.22;5029717;28;20432;-75
2022/01/14 01:20:18;;;;;;;53.80;18.73;;;;;;;-2.88;86.79;98150.97;5029248;28;20056;-74
2022/01/14 01:22:45;;;;;;;57.55;20.35;;;;;;;-2.79;86.89;98153.53;5029820;28;20131;-75
2022/01/14 01:25:14;;;;;;;62.05;19.08;;;;;;;-2.73;86.70;98153.59;5029184;28;20060;-74
2022/01/14 01:27:44;;;;;;;69.75;19.83;;;;;;;-2.68;86.53;98148.50;5029734;28;20127;-74
2022/01/14 01:30:15;;;;;;;68.35;20.60;;;;;;;-2.64;86.14;98156.97;5029032;28;20096;-74
2022/01/14 01:32:46;;;;;;;53.38;19.75;;;;;;;-2.68;85.27;98161.00;5029525;28;20887;-74
2022/01/14 01:35:14;;;;;;;60.45;19.60;;;;;;;-2.61;85.51;98161.94;5029152;28;20041;-75
2022/01/14 01:37:40;;;;;;;57.85;18.50;;;;;;;-2.50;85.83;98156.09;5029525;28;20042;-74
2022/01/14 01:40:08;;;;;;;53.10;17.88;;;;;;;-2.44;85.46;98147.31;5028501;28;20072;-74
2022/01/14 01:42:35;;;;;;;46.40;19.08;;;;;;;-2.39;84.99;98149.41;5027527;28;20060;-74
2022/01/14 01:45:08;;;;;;;51.83;18.33;;;;;;;-2.38;84.79;98145.72;5028819;28;20058;-74
2022/01/14 01:47:35;;;;;;;48.45;18.15;;;;;;;-2.37;84.50;98147.38;5029177;28;20056;-74
2022/01/14 01:50:10;;;;;;;53.17;17.83;;;;;;;-2.36;84.82;98139.16;5028366;28;20421;-74
2022/01/14 01:52:38;;;;;;;46.33;17.85;;;;;;;-2.26;85.03;98146.03;5029156;28;20087;-74
2022/01/14 01:55:06;;;;;;;46.90;17.25;;;;;;;-2.22;84.45;98144.63;5028653;28;20064;-75
2022/01/14 01:57:33;;;;;;;45.65;17.13;;;;;;;-2.19;84.26;98141.59;5029088;28;20056;-74
2022/01/14 02:00:00;;;;;;;44.63;16.73;;;;;;;-2.25;83.91;98147.66;5028813;28;20049;-75
2022/01/14 02:02:26;;;;;;;44.78;16.50;;;;;;;-2.28;83.70;98150.75;5028364;28;20049;-74
2022/01/14 02:04:53;;;;;;;51.83;16.23;;;;;;;-2.21;83.80;98146.28;5028702;28;20053;-75
2022/01/14 02:07:19;;;;;;;49.17;16.23;;;;;;;-2.16;83.54;98138.50;5028575;28;20075;-75
2022/01/14 02:09:47;;;;;;;50.13;16.85;;;;;;;-2.15;83.09;98145.50;5028471;28;20052;-74
2022/01/14 02:12:14;;;;;;;53.05;15.40;;;;;;;-2.21;82.29;98140.94;5026518;28;20515;-75
2022/01/14 02:14:56;;;;;;;51.38;15.43;;;;;;;-2.38;82.39;98141.22;5028852;28;20611;-75
2022/01/14 02:17:34;;;;;;;58.83;16.63;;;;;;;-2.45;82.84;98142.19;5028339;28;20069;-75
2022/01/14 02:22:53;;;;;;;55.53;16.70;;;;;;;-2.57;83.49;98136.50;5028493;28;20077;-74
2022/01/14 02:25:28;;;;;;;48.08;16.00;;;;;;;-2.59;83.88;98130.56;5027866;28;20057;-75
2022/01/14 02:27:55;;;;;;;43.65;15.30;;;;;;;-2.71;83.96;98124.09;5028568;28;20436;-74
2022/01/14 02:30:23;;;;;;;83.53;17.65;;;;;;;-2.78;84.32;98120.50;5028012;28;20120;-74
2022/01/14 02:32:50;;;;;;;53.08;16.52;;;;;;;-2.80;84.66;98119.88;5028431;28;20049;-75
2022/01/14 02:35:18;;;;;;;80.32;16.60;;;;;;;-2.82;84.93;98112.06;5028273;28;20054;-75
2022/01/14 02:37:45;;;;;;;73.65;17.08;;;;;;;-2.82;84.99;98108.56;5028330;28;20045;-75
2022/01/14 02:40:12;;;;;;;55.92;17.20;;;;;;;-2.77;85.42;98106.16;5027527;28;20046;-74
2022/01/14 02:42:39;;;;;;;63.20;17.40;;;;;;;-2.70;85.43;98110.56;5026201;28;20401;-74
2022/01/14 02:45:10;;;;;;;44.80;16.60;;;;;;;-2.71;85.29;98108.09;5028178;28;20045;-74
2022/01/14 02:47:38;;;;;;;60.90;16.45;;;;;;;-2.72;85.23;98093.91;5028291;28;20103;-74
2022/01/14 02:50:06;;;;;;;61.17;15.77;;;;;;;-2.80;84.83;98093.22;5027497;28;20132;-74
2022/01/14 02:52:43;;;;;;;63.45;16.05;;;;;;;-2.84;84.82;98091.94;5028021;28;20505;-75
2022/01/14 02:55:18;;;;;;;36.47;15.15;;;;;;;-2.81;84.75;98095.06;5027711;28;20073;-74
2022/01/14 02:57:47;;;;;;;60.25;16.35;;;;;;;-2.79;85.08;98089.53;5027950;28;20052;-74
2022/01/14 03:00:16;;;;;;;41.67;16.15;;;;;;;-2.75;84.75;98083.63;5027178;28;20045;-75
2022/01/14 03:02:45;;;;;;;57.53;16.58;;;;;;;-2.72;84.75;98090.41;5027591;28;20068;-75
2022/01/14 03:05:12;;;;;;;49.15;17.05;;;;;;;-2.73;84.24;98088.75;5027732;28;20057;-75
2022/01/14 03:07:41;;;;;;;47.03;16.83;;;;;;;-2.69;84.52;98090.03;5027872;28;20045;-75
2022/01/14 03:10:10;;;;;;;48.67;16.98;;;;;;;-2.59;84.84;98087.06;5027339;28;20088;-74
2022/01/14 03:12:37;;;;;;;41.63;15.80;;;;;;;-2.56;84.31;98095.47;5025940;28;20055;-75
2022/01/14 03:15:05;;;;;;;39.13;15.48;;;;;;;-2.52;84.13;98090.59;5027500;28;20496;-74
2022/01/14 03:17:32;;;;;;;46.65;17.60;;;;;;;-2.49;84.52;98091.03;5026907;28;20041;-74
2022/01/14 03:20:00;;;;;;;52.88;17.58;;;;;;;-2.45;83.62;98091.50;5027637;28;20057;-75
2022/01/14 03:22:31;;;;;;;70.78;15.65;;;;;;;-2.54;82.62;98087.31;5027131;28;20050;-74
2022/01/14 03:27:43;;;;;;;54.00;14.73;;;;;;;-2.73;83.01;98078.09;5027545;28;20802;-74
2022/01/14 03:30:12;;;;;;;66.10;14.93;;;;;;;-2.82;82.98;98072.06;5027055;28;20046;-74
2022/01/14 03:32:38;;;;;;;65.97;14.07;;;;;;;-2.90;82.75;98070.38;5027704;28;20505;-75
2022/01/14 03:35:06;;;;;;;40.15;14.45;;;;;;;-2.97;83.07;98061.50;5027172;28;20050;-75
2022/01/14 03:37:32;;;;;;;49.00;14.85;;;;;;;-3.00;83.38;98053.84;5027591;28;20073;-75
2022/01/14 03:40:00;;;;;;;54.03;14.48;;;;;;;-3.09;83.20;98055.00;5023918;28;20053;-74
2022/01/14 03:42:27;;;;;;;76.25;15.63;;;;;;;-3.15;83.38;98045.09;5027144;28;20060;-75
2022/01/14 03:44:53;;;;;;;61.25;15.27;;;;;;;-3.20;83.60;98035.00;5026810;28;20045;-75
2022/01/14 03:47:20;;;;;;;88.90;14.15;;;;;;;-3.26;83.71;98040.25;5022825;28;20049;-74
2022/01/14 03:49:46;;;;;;;88.50;16.48;;;;;;;-3.36;84.03;98029.09;5027126;28;20045;-74
2022/01/14 03:52:13;;;;;;;48.97;14.25;;;;;;;-3.45;84.33;98029.19;5026727;28;20068;-74
2022/01/14 03:54:40;;;;;;;39.85;15.73;;;;;;;-3.43;84.78;98035.19;5027617;28;20123;-74
2022/01/14 03:57:08;;;;;;;50.97;15.88;;;;;;;-3.46;84.83;98040.03;5026968;28;20060;-74
2022/01/14 03:59:35;;;;;;;66.53;16.33;;;;;;;-3.43;85.16;98037.84;5027657;28;20080;-74
2022/01/14 04:02:01;;;;;;;42.00;15.98;;;;;;;-3.34;85.58;98032.38;5026976;28;20049;-74
2022/01/14 04:04:28;;;;;;;45.28;15.32;;;;;;;-3.27;85.32;98034.13;5027196;28;20052;-74
2022/01/14 04:06:54;;;;;;;57.47;15.35;;;;;;;-3.20;84.81;98036.84;5027176;28;20073;-74
2022/01/14 04:09:21;;;;;;;67.47;15.93;;;;;;;-3.22;84.19;98033.56;5026879;28;20088;-74
2022/01/14 04:11:47;;;;;;;66.03;14.45;;;;;;;-3.34;84.10;98027.06;5026912;28;20099;-74
2022/01/14 04:16:58;;;;;;;63.95;14.60;;;;;;;-3.35;84.26;98028.06;5026750;28;20065;-74
2022/01/14 04:19:27;;;;;;;48.58;14.95;;;;;;;-3.38;84.33;98036.47;5026634;28;20124;-74
2022/01/14 04:21:53;;;;;;;41.55;13.85;;;;;;;-3.41;84.57;98032.31;5026690;28;20145;-75
2022/01/14 04:24:20;;;;;;;39.58;15.32;;;;;;;-3.35;84.94;98030.72;5026636;28;20131;-74
2022/01/14 04:26:46;;;;;;;59.53;14.73;;;;;;;-3.38;84.52;98036.47;5027028;28;20523;-75
2022/01/14 04:29:14;;;;;;;43.95;13.38;;;;;;;-3.50;84.65;98026.28;5028988;28;20056;-75
2022/01/14 04:31:41;;;;;;;67.75;15.88;;;;;;;-3.65;84.93;98030.81;5029993;28;20437;-74
2022/01/14 04:34:07;;;;;;;43.60;13.95;;;;;;;-3.72;85.46;98024.56;5030078;28;20045;-74
2022/01/14 04:36:34;;;;;;;63.35;14.25;;;;;;;-3.75;85.88;98024.97;5030692;28;20053;-74
2022/01/14 04:39:01;;;;;;;40.88;13.98;;;;;;;-3.78;86.12;98025.31;5030301;28;20053;-74
2022/01/14 04:41:27;;;;;;;45.45;13.95;;;;;;;-3.81;86.15;98009.72;5029849;28;20579;-74
2022/01/14 04:43:53;;;;;;;35.75;13.57;;;;;;;-3.81;86.46;98012.38;5030617;28;20049;-74
2022/01/14 04:46:59;;;;;;;60.75;13.88;;;;;;;-3.78;86.70;98004.03;5029398;28;20041;-75
2022/01/14 04:49:26;;;;;;;29.25;13.05;;;;;;;-3.80;86.56;98006.88;5029640;28;20056;-75
2022/01/14 04:51:55;;;;;;;44.60;13.23;;;;;;;-3.71;86.75;98005.78;5030198;28;20046;-75
2022/01/14 04:54:22;;;;;;;40.67;13.32;;;;;;;-3.77;86.35;98005.69;5029858;28;20470;-74
2022/01/14 04:56:48;;;;;;;38.65;14.05;;;;;;;-3.77;86.40;98013.66;5030149;28;20052;-75
2022/01/14 04:59:14;;;;;;;39.55;13.65;;;;;;;-3.76;86.39;98009.97;5029602;28;20061;-75
2022/01/14 05:01:42;;;;;;;35.25;13.63;;;;;;;-3.69;86.56;98002.91;5029814;28;20053;-75
2022/01/14 05:04:09;;;;;;;31.98;13.82;;;;;;;-3.60;86.80;98001.81;5029421;28;20060;-74
2022/01/14 05:06:35;;;;;;;69.53;13.82;;;;;;;-3.58;86.17;98006.94;5030012;28;20520;-74
2022/01/14 05:09:06;;;;;;;42.63;13.10;;;;;;;-3.66;85.57;98007.84;5029934;28;20053;-73
2022/01/14 05:11:39;;;;;;;78.03;14.70;;;;;;;-3.75;85.56;98009.00;5029893;28;20824;-75
2022/01/14 05:14:06;;;;;;;34.35;13.65;;;;;;;-3.77;85.68;98005.69;5029644;28;20049;-74
2022/01/14 05:16:32;;;;;;;47.70;15.52;;;;;;;-3.71;86.40;98010.25;5026388;28;20501;-75
2022/01/14 05:19:00;;;;;;;30.90;14.63;;;;;;;-3.62;86.43;98014.47;5029767;28;20626;-74
2022/01/14 05:21:26;;;;;;;48.63;14.07;;;;;;;-3.58;86.12;98014.91;5028801;28;20052;-74
2022/01/14 05:23:53;;;;;;;36.35;14.63;;;;;;;-3.54;86.08;98017.03;5029631;28;20053;-75
2022/01/14 05:26:19;;;;;;;35.35;14.48;;;;;;;-3.50;86.09;98015.66;5029048;28;20065;-75
2022/01/14 05:28:46;;;;;;;33.40;14.43;;;;;;;-3.42;86.22;98018.16;5029707;28;20675;-74
2022/01/14 05:31:12;;;;;;;40.25;13.65;;;;;;;-3.42;85.77;98018.16;5028496;28;20444;-75
2022/01/14 05:33:41;;;;;;;32.13;13.75;;;;;;;-3.52;85.36;98014.16;5029523;28;20049;-74
2022/01/14 05:36:09;;;;;;;33.22;14.25;;;;;;;-3.56;85.96;98013.72;5028590;28;20413;-75
2022/01/14 05:38:35;;;;;;;34.72;14.90;;;;;;;-3.54;86.27;98016.19;5028470;28;20068;-74
2022/01/14 05:41:02;;;;;;;64.97;15.15;;;;;;;-3.51;86.37;98005.97;5027667;28;20413;-74
2022/01/14 05:43:28;;;;;;;42.45;15.90;;;;;;;-3.43;86.39;98013.88;5029499;28;20054;-74
2022/01/14 05:45:55;;;;;;;42.25;14.85;;;;;;;-3.46;85.90;98003.56;5025906;28;20052;-74
2022/01/14 05:48:21;;;;;;;42.80;15.07;;;;;;;-3.50;85.81;98002.31;5028658;28;20386;-74
2022/01/14 05:50:48;;;;;;;36.30;14.52;;;;;;;-3.45;86.11;98007.06;5028530;28;20101;-74
2022/01/14 05:53:16;;;;;;;54.35;15.85;;;;;;;-3.43;86.38;97992.56;5028755;28;20072;-75
2022/01/14 05:55:42;;;;;;;35.90;14.48;;;;;;;-3.44;85.90;98004.22;5028985;28;20050;-74
2022/01/14 05:58:09;;;;;;;33.38;14.93;;;;;;;-3.43;86.26;98011.19;5028593;28;20080;-74
2022/01/14 06:00:35;;;;;;;38.53;16.02;;;;;;;-3.38;86.56;98010.63;5028535;28;20072;-74
2022/01/14 06:03:02;;;;;;;37.63;15.85;;;;;;;-3.37;86.43;98008.81;5028411;28;20086;-73
2022/01/14 06:05:28;;;;;;;36.88;14.73;;;;;;;-3.33;86.21;98018.91;5029036;28;20045;-74
2022/01/14 06:07:55;;;;;;;39.15;15.77;;;;;;;-3.33;85.80;98018.06;5027326;28;20056;-74
2022/01/14 06:10:23;;;;;;;39.45;16.27;;;;;;;-3.29;85.95;98020.16;5010275;28;20049;-74
2022/01/14 06:12:49;;;;;;;39.40;16.02;;;;;;;-3.25;85.81;98015.28;5028654;28;20048;-75
2022/01/14 06:15:16;;;;;;;42.05;16.48;;;;;;;-3.26;85.36;98024.28;5025795;28;20045;-74
2022/01/14 06:17:42;;;;;;;41.28;15.75;;;;;;;-3.28;85.14;98026.31;5028030;28;20107;-74
2022/01/14 06:20:10;;;;;;;44.35;15.85;;;;;;;-3.34;84.89;98024.38;5027976;28;20045;-74
2022/01/14 06:22:37;;;;;;;37.15;15.80;;;;;;;-3.43;85.16;98027.19;5028528;28;20056;-75
2022/01/14 06:25:04;;;;;;;38.05;15.93;;;;;;;-3.46;85.52;98024.88;5027952;28;20064;-74
2022/01/14 06:27:32;;;;;;;41.70;16.42;;;;;;;-3.48;85.74;98021.59;5028552;28;20045;-74
2022/01/14 06:29:59;;;;;;;40.50;16.70;;;;;;;-3.48;85.69;98021.59;5028240;28;20064;-74
2022/01/14 06:32:25;;;;;;;35.70;15.13;;;;;;;-3.51;85.98;98013.97;5027844;28;20045;-75
2022/01/14 06:34:52;;;;;;;40.55;17.15;;;;;;;-3.54;86.17;98017.03;5028441;28;20420;-71
2022/01/14 06:37:18;;;;;;;39.47;16.20;;;;;;;-3.54;86.35;98008.22;5028074;28;20056;-72
2022/01/14 06:39:45;;;;;;;43.28;17.52;;;;;;;-3.48;86.50;98002.13;5028069;28;20049;-71
2022/01/14 06:42:11;;;;;;;36.38;15.98;;;;;;;-3.48;86.38;98005.63;5027790;28;20073;-71
2022/01/14 06:44:39;;;;;;;37.47;16.15;;;;;;;-3.45;86.11;98007.88;5028356;28;20068;-71
2022/01/14 06:47:06;;;;;;;38.45;16.08;;;;;;;-3.47;85.93;98001.94;5027600;28;20496;-72
2022/01/14 06:49:32;;;;;;;39.08;16.70;;;;;;;-3.50;85.95;97997.00;5028021;28;20052;-72
2022/01/14 06:51:59;;;;;;;40.33;16.38;;;;;;;-3.58;86.04;97999.78;5027945;28;20064;-71
2022/01/14 06:54:25;;;;;;;39.72;16.77;;;;;;;-3.62;86.49;97998.50;5027434;28;20053;-72
2022/01/14 06:56:52;;;;;;;42.65;17.15;;;;;;;-3.61;86.92;98000.13;5028179;28;20445;-71
2022/01/14 06:59:18;;;;;;;44.30;17.45;;;;;;;-3.57;87.21;97989.94;5027525;28;20049;-72
2022/01/14 07:01:46;;;;;;;42.75;17.10;;;;;;;-3.53;86.93;97996.53;5027383;28;20064;-70
2022/01/14 07:04:12;;;;;;;42.60;16.90;;;;;;;-3.52;86.91;97993.69;5027224;28;20053;-72
2022/01/14 07:06:39;;;;;;;45.30;17.33;;;;;;;-3.52;87.03;98004.34;5027387;28;20045;-73
2022/01/14 07:09:06;;;;;;;42.38;16.45;;;;;;;-3.49;87.06;98003.16;5026343;28;20049;-72
2022/01/14 07:11:36;;;;;;;35.92;15.57;;;;;;;-3.46;87.26;98000.91;5026663;28;20055;-72
2022/01/14 07:14:03;;;;;;;41.33;16.70;;;;;;;-3.43;87.36;97999.72;5026321;28;20053;-72
2022/01/14 07:16:29;;;;;;;41.75;16.85;;;;;;;-3.39;87.51;98002.81;5027597;28;20088;-72
2022/01/14 07:18:57;;;;;;;44.63;17.08;;;;;;;-3.30;87.59;98012.34;5027746;28;20056;-73
2022/01/14 07:21:24;;;;;;;45.05;17.75;;;;;;;-3.21;87.41;98005.88;5027516;28;20412;-72
2022/01/14 07:23:50;;;;;;;42.42;18.50;;;;;;;-3.13;87.22;98012.91;5027909;28;20045;-72
2022/01/14 07:26:17;;;;;;;44.88;16.83;;;;;;;-3.09;86.57;98012.34;5027567;28;20095;-72
2022/01/14 07:28:44;;;;;;;38.60;17.60;;;;;;;-3.05;86.04;98005.63;5027842;28;20128;-72
2022/01/14 07:31:10;;;;;;;39.40;16.95;;;;;;;-3.07;85.93;98005.00;5026976;28;20065;-71
2022/01/14 07:33:37;;;;;;;38.15;16.80;;;;;;;-3.04;85.85;98001.94;5028006;28;20046;-72
2022/01/14 07:36:05;;;;;;;40.55;17.60;;;;;;;-3.05;85.71;97997.63;5027611;28;20627;-73
2022/01/14 07:38:32;;;;;;;42.63;17.35;;;;;;;-3.04;85.68;97999.28;5027633;28;20045;-72
2022/01/14 07:40:58;;;;;;;40.75;17.52;;;;;;;-3.04;85.75;98001.13;5027454;28;20046;-72
2022/01/14 07:43:25;;;;;;;41.08;17.88;;;;;;;-3.04;85.96;98001.94;5027421;28;20049;-72
2022/01/14 07:45:51;;;;;;;42.35;18.30;;;;;;;-3.03;86.14;97995.59;5026907;28;20052;-72
2022/01/14 07:48:18;;;;;;;43.60;18.02;;;;;;;-2.97;86.35;98002.84;5027470;28;20052;-72
2022/01/14 07:50:44;;;;;;;44.28;18.98;;;;;;;-2.90;86.32;98002.91;5027250;28;20046;-72
2022/01/14 07:53:12;;;;;;;41.00;17.45;;;;;;;-2.83;86.38;98008.28;5027512;28;20046;-73
2022/01/14 07:55:39;;;;;;;47.55;18.27;;;;;;;-2.80;86.06;98007.91;5027622;28;20045;-72
2022/01/14 07:58:06;;;;;;;44.50;17.55;;;;;;;-2.74;85.81;98007.13;5027483;28;20050;-72
2022/01/14 08:00:35;;;;;;;46.85;17.55;;;;;;;-2.65;85.76;98011.31;5027081;28;20512;-72
2022/01/14 08:03:02;;;;;;;49.50;20.13;;;;;;;-2.53;85.71;98023.09;5027530;28;20041;-72
2022/01/14 08:05:28;;;;;;;44.25;18.50;;;;;;;-2.44;85.80;98027.28;5031430;28;20053;-72
2022/01/14 08:07:57;;;;;;;45.50;19.75;;;;;;;-2.30;86.07;98035.34;5030985;28;20053;-72
2022/01/14 08:10:25;;;;;;;46.47;18.90;;;;;;;-2.18;85.38;98033.81;5030626;28;20049;-72
2022/01/14 08:12:52;;;;;;;44.28;18.75;;;;;;;-1.86;85.39;98027.00;5030885;28;20052;-73
2022/01/14 08:15:18;;;;;;;45.28;18.60;;;;;;;-1.52;84.03;98030.63;5030852;28;20045;-72
2022/01/14 08:17:45;;;;;;;41.58;18.50;;;;;;;-1.10;83.20;98026.84;5030694;28;20056;-73
2022/01/14 08:20:12;;;;;;;40.72;17.80;;;;;;;-0.72;81.21;98028.97;5030469;28;20517;-72
2022/01/14 08:22:38;;;;;;;38.50;16.70;;;;;;;-0.56;79.88;98034.75;5030431;28;20061;-73
2022/01/14 08:25:06;;;;;;;37.95;17.50;;;;;;;-0.12;78.01;98030.56;5030178;28;20057;-73
2022/01/14 08:27:33;;;;;;;38.58;16.95;;;;;;;0.00;76.26;98038.81;5030994;28;20041;-72
2022/01/14 08:30:00;;;;;;;34.60;16.10;;;;;;;0.27;75.37;98034.22;5030901;28;20048;-73
2022/01/14 08:32:26;;;;;;;40.25;18.27;;;;;;;0.25;73.58;98026.34;5030106;28;20053;-72
2022/01/14 08:34:53;;;;;;;40.15;17.67;;;;;;;0.20;73.68;98023.50;5030797;28;20053;-73
2022/01/14 08:37:19;;;;;;;39.65;17.98;;;;;;;-0.12;74.43;98029.75;5030313;28;20054;-72
2022/01/14 08:39:46;;;;;;;43.42;17.83;;;;;;;-0.39;75.82;98019.09;5029912;28;20057;-72
2022/01/14 08:42:14;;;;;;;42.13;18.60;;;;;;;-0.64;77.16;98020.72;5029973;28;20049;-72
2022/01/14 08:44:43;;;;;;;42.63;17.73;;;;;;;-0.91;78.56;98020.72;5030447;28;20045;-72
2022/01/14 08:47:11;;;;;;;45.13;19.10;;;;;;;-1.18;80.27;98019.03;5030115;28;20072;-72
2022/01/14 08:49:38;;;;;;;46.63;20.63;;;;;;;-1.15;81.25;98014.13;5030375;28;20054;-72
2022/01/14 08:52:06;;;;;;;42.78;19.88;;;;;;;-1.12;81.37;98012.88;5029269;28;20918;-72
2022/01/14 08:54:32;;;;;;;46.65;21.02;;;;;;;-1.04;82.30;98015.38;5030241;28;20056;-72
2022/01/14 08:56:59;;;;;;;48.75;21.10;;;;;;;-1.03;81.88;98017.00;5029973;28;20516;-72
2022/01/14 08:59:25;;;;;;;45.25;19.38;;;;;;;-1.01;81.92;98020.28;5029484;28;20124;-72
2022/01/14 09:01:53;;;;;;;47.15;20.20;;;;;;;-0.98;82.54;98011.88;5029755;28;20046;-72
2022/01/14 09:04:19;;;;;;;49.13;21.23;;;;;;;-0.99;82.83;98012.91;5029495;28;20049;-72
2022/01/14 09:06:46;;;;;;;46.80;19.20;;;;;;;-1.04;82.40;98010.00;5029979;28;20045;-73
2022/01/14 09:09:13;;;;;;;44.22;20.20;;;;;;;-0.93;83.12;98017.44;5029387;28;20046;-72
2022/01/14 09:11:40;;;;;;;50.70;20.77;;;;;;;-0.82;82.82;98024.84;5029630;28;20052;-72
2022/01/14 09:14:07;;;;;;;45.20;19.17;;;;;;;-0.75;82.02;98021.34;5029391;28;20046;-72
2022/01/14 09:16:33;;;;;;;41.83;20.10;;;;;;;-0.65;82.12;98016.41;5029076;28;20072;-72
2022/01/14 09:19:01;;;;;;;45.80;20.27;;;;;;;-0.55;82.41;98008.81;5030132;28;20052;-72
2022/01/14 09:21:28;;;;;;;42.78;21.10;;;;;;;-0.48;81.52;98004.25;5029457;28;20507;-72
2022/01/14 09:24:03;;;;;;;48.78;20.73;;;;;;;-0.35;81.85;98009.63;5029791;28;20173;-72
2022/01/14 09:26:30;;;;;;;47.92;21.23;;;;;;;-0.18;82.64;98014.53;5029849;28;20053;-73
2022/01/14 09:28:57;;;;;;;43.33;19.75;;;;;;;-0.12;81.38;98011.81;5028566;28;20049;-72
2022/01/14 09:31:23;;;;;;;46.22;20.38;;;;;;;-0.09;81.22;98010.59;5028808;28;20052;-72
2022/01/14 09:33:50;;;;;;;40.67;19.33;;;;;;;-0.04;81.29;98016.16;5029693;28;20680;-72
2022/01/14 09:36:18;;;;;;;44.10;20.45;;;;;;;-0.01;80.76;98010.34;5029120;28;20056;-72
2022/01/14 09:38:44;;;;;;;46.50;20.58;;;;;;;0.04;80.61;98007.88;5029249;28;20053;-72
2022/01/14 09:41:14;;;;;;;50.40;20.65;;;;;;;-0.02;79.13;98008.72;5028480;28;20057;-72
2022/01/14 09:43:41;;;;;;;39.78;18.25;;;;;;;0.02;79.16;98009.13;5029377;28;20436;-72
2022/01/14 09:46:10;;;;;;;41.38;19.55;;;;;;;0.08;79.09;98009.09;5028262;28;20049;-72
2022/01/14 09:48:38;;;;;;;42.13;19.35;;;;;;;0.28;79.92;98011.72;5029633;28;20487;-72
2022/01/14 09:51:05;;;;;;;45.47;20.23;;;;;;;0.42;78.67;98007.16;5028240;28;20045;-72
2022/01/14 09:53:34;;;;;;;43.72;19.80;;;;;;;0.65;78.08;98012.81;5029169;28;20049;-72
2022/01/14 09:56:02;;;;;;;40.35;19.42;;;;;;;0.83;77.85;98000.53;5029275;28;20512;-72
2022/01/14 09:58:34;;;;;;;44.30;20.92;;;;;;;1.07;77.18;98007.81;5028973;28;20045;-72
2022/01/14 10:01:08;;;;;;;43.75;20.20;;;;;;;1.20;75.68;97990.78;5028637;28;20136;-72
2022/01/14 10:03:35;;;;;;;42.10;19.77;;;;;;;1.31;75.10;97995.47;5028898;28;20138;-72
2022/01/14 10:06:01;;;;;;;37.88;18.35;;;;;;;1.53;73.85;97990.53;5029006;28;20413;-72
2022/01/14 10:08:29;;;;;;;42.72;20.02;;;;;;;1.57;74.12;97991.75;5029055;28;20052;-72
2022/01/14 10:10:59;;;;;;;39.55;18.25;;;;;;;1.85;73.81;97980.53;5028595;28;20144;-72
2022/01/14 10:13:28;;;;;;;44.03;19.95;;;;;;;2.05;73.59;97977.63;5028860;28;20493;-72
2022/01/14 10:16:01;;;;;;;41.65;18.98;;;;;;;2.16;72.38;97973.38;5028469;28;20045;-72
2022/01/14 10:18:28;;;;;;;35.72;18.10;;;;;;;2.27;72.33;97973.44;5028580;28;20072;-72
2022/01/14 10:21:00;;;;;;;38.50;19.35;;;;;;;2.34;70.94;97970.66;5028326;28;20045;-72
2022/01/14 10:23:39;;;;;;;35.38;18.65;;;;;;;2.57;70.75;97970.78;5028546;28;20051;-72
2022/01/14 10:26:07;;;;;;;37.75;18.40;;;;;;;2.86;69.73;97958.38;5027960;28;20127;-73
2022/01/14 10:28:34;;;;;;;37.75;18.02;;;;;;;3.04;69.04;97967.44;5029027;28;20052;-72
2022/01/14 10:31:01;;;;;;;38.15;17.88;;;;;;;2.94;69.08;97959.13;5028234;28;20057;-72
2022/01/14 10:33:29;;;;;;;34.83;18.25;;;;;;;2.85;70.10;97962.13;5028574;28;20065;-72
2022/01/14 10:35:56;;;;;;;37.92;19.70;;;;;;;2.91;71.02;97960.38;5029035;28;20050;-72
2022/01/14 10:38:25;;;;;;;38.67;18.80;;;;;;;3.19;71.52;97961.63;5027996;28;20049;-72
2022/01/14 10:40:54;;;;;;;34.60;18.73;;;;;;;3.17;68.93;97961.84;5028395;28;20053;-72
2022/01/14 10:43:31;;;;;;;40.95;19.88;;;;;;;3.16;68.94;97968.28;5028093;28;20053;-72
2022/01/14 10:45:58;;;;;;;38.13;18.13;;;;;;;3.49;68.18;97964.22;5028025;28;20049;-72
2022/01/14 10:48:32;;;;;;;33.88;17.25;;;;;;;3.92;67.54;97962.03;5028191;28;20053;-72
2022/01/14 10:50:59;;;;;;;37.60;19.13;;;;;;;4.16;66.18;97951.19;5028050;28;20119;-72
2022/01/14 10:53:30;;;;;;;38.33;17.33;;;;;;;3.87;66.67;97953.81;5028023;28;20053;-72
2022/01/14 10:56:01;;;;;;;32.38;17.13;;;;;;;3.78;67.23;97949.03;5028288;28;20057;-72
2022/01/14 10:58:31;;;;;;;34.17;17.58;;;;;;;3.88;66.70;97949.25;5028182;28;20477;-72
2022/01/14 11:01:00;;;;;;;34.15;17.55;;;;;;;3.87;67.83;97945.75;5027661;28;20049;-72
2022/01/14 11:03:34;;;;;;;32.60;17.17;;;;;;;4.04;67.61;97931.53;5027782;28;20052;-72
2022/01/14 11:06:19;;;;;;;33.90;17.13;;;;;;;3.99;66.83;97926.84;5028120;28;20081;-72
2022/01/14 11:08:46;;;;;;;31.33;16.55;;;;;;;4.01;66.59;97926.59;5027863;28;20045;-72
2022/01/14 11:11:14;;;;;;;31.60;17.25;;;;;;;3.82;67.04;97924.06;5027288;28;20084;-72
2022/01/14 11:13:43;;;;;;;33.30;17.67;;;;;;;4.06;68.18;97929.41;5027862;28;20050;-72
2022/01/14 11:16:09;;;;;;;33.47;17.48;;;;;;;4.32;67.34;97930.75;5027285;28;20057;-72
2022/01/14 11:18:37;;;;;;;34.03;17.23;;;;;;;4.49;66.84;97928.09;5028051;28;20049;-73
2022/01/14 11:23:48;;;;;;;30.80;15.90;;;;;;;4.57;66.11;97915.06;5028238;28;20056;-72
2022/01/14 11:26:19;;;;;;;33.15;17.02;;;;;;;4.42;65.23;97912.88;5027503;28;20042;-72
2022/01/14 11:28:47;;;;;;;29.63;16.58;;;;;;;4.44;65.63;97905.41;5028233;28;20107;-72
2022/01/14 11:31:25;;;;;;;31.15;16.65;;;;;;;4.48;65.52;97903.03;5026937;28;20080;-72
2022/01/14 11:33:52;;;;;;;31.13;16.52;;;;;;;4.42;66.19;97895.91;5027992;28;20533;-72
2022/01/14 11:36:19;;;;;;;29.15;16.42;;;;;;;4.38;66.71;97900.13;5027663;28;20042;-72
2022/01/14 11:38:47;;;;;;;32.15;17.10;;;;;;;4.28;67.31;97892.69;5029422;28;20041;-72
2022/01/14 11:41:16;;;;;;;33.22;16.40;;;;;;;4.26;67.47;97892.09;5031102;28;20057;-72
2022/01/14 11:43:50;;;;;;;29.40;15.80;;;;;;;4.23;67.16;97892.59;5032028;28;20077;-72
2022/01/14 11:46:43;;;;;;;29.23;15.70;;;;;;;4.37;66.60;97888.53;5031117;28;20077;-72